createdAt,value
2022-11-27T00:01:11.646Z,8.63
2022-11-27T00:03:39.279Z,8.57
2022-11-27T00:06:07.283Z,9.57
2022-11-27T00:08:34.856Z,8.07
2022-11-27T00:11:06.197Z,8.50
2022-11-27T00:13:35.124Z,8.30
2022-11-27T00:16:02.784Z,9.50
2022-11-27T00:18:30.567Z,10.50
2022-11-27T00:21:03.343Z,11.17
2022-11-27T00:23:30.981Z,8.03
2022-11-27T00:25:58.445Z,8.30
2022-11-27T00:28:25.946Z,8.97
2022-11-27T00:30:54.773Z,8.53
2022-11-27T00:33:22.231Z,8.40
2022-11-27T00:35:49.696Z,8.97
2022-11-27T00:38:17.184Z,8.43
2022-11-27T00:40:44.690Z,7.63
2022-11-27T00:43:12.182Z,8.20
2022-11-27T00:45:39.665Z,13.03
2022-11-27T00:48:08.468Z,9.33
2022-11-27T00:50:35.931Z,8.37
2022-11-27T00:53:03.418Z,8.73
2022-11-27T00:55:30.857Z,8.77
2022-11-27T00:57:58.345Z,11.23
2022-11-27T01:00:25.782Z,9.70
2022-11-27T01:02:53.343Z,9.40
2022-11-27T01:05:22.238Z,8.67
2022-11-27T01:07:49.791Z,9.23
2022-11-27T01:10:17.307Z,9.30
2022-11-27T01:12:44.722Z,8.77
2022-11-27T01:15:12.359Z,10.40
2022-11-27T01:17:39.831Z,9.13
2022-11-27T01:20:08.074Z,8.27
2022-11-27T01:22:36.889Z,9.83
2022-11-27T01:25:04.520Z,7.97
2022-11-27T01:27:31.926Z,8.30
2022-11-27T01:30:00.214Z,8.23
2022-11-27T01:32:27.974Z,8.50
2022-11-27T01:34:55.449Z,8.47
2022-11-27T01:37:22.925Z,9.37
2022-11-27T01:39:51.753Z,8.37
2022-11-27T01:42:19.150Z,7.97
2022-11-27T01:44:54.732Z,8.50
2022-11-27T01:47:29.139Z,7.97
2022-11-27T01:50:00.635Z,7.83
2022-11-27T01:52:30.391Z,8.93
2022-11-27T01:55:01.646Z,7.73
2022-11-27T01:57:31.481Z,8.90
2022-11-27T02:00:00.753Z,13.43
2022-11-27T02:02:28.602Z,7.43
2022-11-27T02:04:58.742Z,7.57
2022-11-27T02:07:26.345Z,9.83
2022-11-27T02:09:53.957Z,8.63
2022-11-27T02:12:25.747Z,7.83
2022-11-27T02:14:58.469Z,8.97
2022-11-27T02:17:29.371Z,9.50
2022-11-27T02:20:05.763Z,10.30
2022-11-27T02:22:52.058Z,10.03
2022-11-27T02:25:27.979Z,8.47
2022-11-27T02:28:05.507Z,8.33
2022-11-27T02:30:35.991Z,8.93
2022-11-27T02:33:06.210Z,9.37
2022-11-27T02:35:37.579Z,8.60
2022-11-27T02:38:08.626Z,8.40
2022-11-27T02:40:38.407Z,7.80
2022-11-27T02:43:08.806Z,10.07
2022-11-27T02:45:39.128Z,9.87
2022-11-27T02:48:07.639Z,9.03
2022-11-27T02:50:36.777Z,9.17
2022-11-27T02:53:05.537Z,9.77
2022-11-27T02:55:35.025Z,11.17
2022-11-27T02:58:03.472Z,10.90
2022-11-27T03:00:31.453Z,10.47
2022-11-27T03:03:02.918Z,9.47
2022-11-27T03:05:33.868Z,10.33
2022-11-27T03:08:03.729Z,8.90
2022-11-27T03:10:32.784Z,9.67
2022-11-27T03:13:01.035Z,13.33
2022-11-27T03:15:32.385Z,11.60
2022-11-27T03:18:04.453Z,12.87
2022-11-27T03:20:33.810Z,10.53
2022-11-27T03:23:01.353Z,11.93
2022-11-27T03:25:29.384Z,15.10
2022-11-27T03:27:59.114Z,10.63
2022-11-27T03:30:26.709Z,11.23
2022-11-27T03:32:54.196Z,9.93
2022-11-27T03:35:24.157Z,10.60
2022-11-27T03:37:52.193Z,11.33
2022-11-27T03:40:20.129Z,13.47
2022-11-27T03:42:52.954Z,11.97
2022-11-27T03:45:27.713Z,15.07
2022-11-27T03:48:00.743Z,11.50
2022-11-27T03:50:34.625Z,13.10
2022-11-27T03:53:09.130Z,13.27
2022-11-27T03:55:39.396Z,15.80
2022-11-27T03:58:09.397Z,13.73
2022-11-27T04:00:38.354Z,13.00
2022-11-27T04:03:06.150Z,12.23
2022-11-27T04:05:34.988Z,12.50
2022-11-27T04:08:02.465Z,11.57
2022-11-27T04:10:29.877Z,13.30
2022-11-27T04:12:57.288Z,12.87
2022-11-27T04:15:24.694Z,10.67
2022-11-27T04:17:52.129Z,11.00
2022-11-27T04:20:19.607Z,12.90
2022-11-27T04:22:48.447Z,11.70
2022-11-27T04:25:15.926Z,9.20
2022-11-27T04:27:43.334Z,9.50
2022-11-27T04:30:11.263Z,8.77
2022-11-27T04:32:38.777Z,10.43
2022-11-27T04:35:06.717Z,9.07
2022-11-27T04:37:34.278Z,8.90
2022-11-27T04:40:03.164Z,8.60
2022-11-27T04:42:30.638Z,7.93
2022-11-27T04:44:58.230Z,8.37
2022-11-27T04:47:25.659Z,9.17
2022-11-27T04:49:53.084Z,8.50
2022-11-27T04:52:20.674Z,8.77
2022-11-27T04:54:48.120Z,9.87
2022-11-27T04:57:16.906Z,9.37
2022-11-27T04:59:44.514Z,7.87
2022-11-27T05:02:12.445Z,10.27
2022-11-27T05:04:40.203Z,10.23
2022-11-27T05:07:08.051Z,8.97
2022-11-27T05:09:35.537Z,11.70
2022-11-27T05:12:04.008Z,10.50
2022-11-27T05:14:32.908Z,12.03
2022-11-27T05:17:00.738Z,12.63
2022-11-27T05:19:30.502Z,10.17
2022-11-27T05:21:59.350Z,13.10
2022-11-27T05:24:28.475Z,11.37
2022-11-27T05:26:56.376Z,12.17
2022-11-27T05:29:24.117Z,9.17
2022-11-27T05:31:53.022Z,12.47
2022-11-27T05:34:20.505Z,10.83
2022-11-27T05:36:47.967Z,10.10
2022-11-27T05:39:15.632Z,12.83
2022-11-27T05:41:43.961Z,11.00
2022-11-27T05:44:12.266Z,10.37
2022-11-27T05:46:39.795Z,10.63
2022-11-27T05:49:08.657Z,11.10
2022-11-27T05:51:36.120Z,10.77
2022-11-27T05:54:03.578Z,11.10
2022-11-27T05:56:31.034Z,11.80
2022-11-27T05:58:58.664Z,11.93
2022-11-27T06:01:26.092Z,14.83
2022-11-27T06:03:53.550Z,14.53
2022-11-27T06:06:22.358Z,12.37
2022-11-27T06:08:49.861Z,13.00
2022-11-27T06:11:18.163Z,12.83
2022-11-27T06:13:45.996Z,13.33
2022-11-27T06:16:14.418Z,13.77
2022-11-27T06:18:41.894Z,13.63
2022-11-27T06:21:09.925Z,12.67
2022-11-27T06:23:38.757Z,17.07
2022-11-27T06:26:12.927Z,14.97
2022-11-27T06:28:40.953Z,14.80
2022-11-27T06:31:14.498Z,14.97
2022-11-27T06:33:44.881Z,14.50
2022-11-27T06:36:12.365Z,14.70
2022-11-27T06:38:41.402Z,14.03
2022-11-27T06:41:10.134Z,13.33
2022-11-27T06:43:37.626Z,12.87
2022-11-27T06:46:05.773Z,13.60
2022-11-27T06:48:33.370Z,13.37
2022-11-27T06:51:01.839Z,13.27
2022-11-27T06:53:29.418Z,14.27
2022-11-27T06:55:58.419Z,14.90
2022-11-27T06:58:30.803Z,14.17
2022-11-27T07:00:59.033Z,13.77
2022-11-27T07:03:26.694Z,14.30
2022-11-27T07:05:54.184Z,14.07
2022-11-27T07:08:22.173Z,15.23
2022-11-27T07:10:49.649Z,12.67
2022-11-27T07:13:18.425Z,14.00
2022-11-27T07:15:45.897Z,14.40
2022-11-27T07:18:13.401Z,13.43
2022-11-27T07:20:40.855Z,13.17
2022-11-27T07:23:08.286Z,14.50
2022-11-27T07:25:38.065Z,14.00
2022-11-27T07:28:05.594Z,12.30
2022-11-27T07:30:34.454Z,15.10
2022-11-27T07:33:01.918Z,15.50
2022-11-27T07:35:29.411Z,15.80
2022-11-27T07:37:56.906Z,13.90
2022-11-27T07:40:24.337Z,13.00
2022-11-27T07:42:51.794Z,13.33
2022-11-27T07:45:20.313Z,12.30
2022-11-27T07:47:49.112Z,12.73
2022-11-27T07:50:16.582Z,12.70
2022-11-27T07:52:44.019Z,13.27
2022-11-27T07:55:11.669Z,13.27
2022-11-27T07:57:39.082Z,12.23
2022-11-27T08:00:07.337Z,16.57
2022-11-27T08:02:34.905Z,14.50
2022-11-27T08:05:08.126Z,13.37
2022-11-27T08:07:38.607Z,12.40
2022-11-27T08:10:06.622Z,12.30
2022-11-27T08:12:34.177Z,13.37
2022-11-27T08:15:03.171Z,15.07
2022-11-27T08:17:30.617Z,13.83
2022-11-27T08:19:58.036Z,13.97
2022-11-27T08:22:26.841Z,13.67
2022-11-27T08:24:54.278Z,14.17
2022-11-27T08:27:21.698Z,11.80
2022-11-27T08:29:49.135Z,14.77
2022-11-27T08:32:16.562Z,11.50
2022-11-27T08:34:44.012Z,11.33
2022-11-27T08:37:11.474Z,14.27
2022-11-27T08:39:40.423Z,11.23
2022-11-27T08:42:07.880Z,11.50
2022-11-27T08:44:35.307Z,11.70
2022-11-27T08:47:03.181Z,11.77
2022-11-27T08:49:30.641Z,11.63
2022-11-27T08:51:58.171Z,11.97
2022-11-27T08:54:25.710Z,14.47
2022-11-27T08:56:54.487Z,10.53
2022-11-27T08:59:21.927Z,10.57
2022-11-27T09:01:49.331Z,11.07
2022-11-27T09:04:16.830Z,11.07
2022-11-27T09:06:44.299Z,12.37
2022-11-27T09:09:11.949Z,10.67
2022-11-27T09:11:39.367Z,11.10
2022-11-27T09:14:08.684Z,10.37
2022-11-27T09:16:36.492Z,10.67
2022-11-27T09:19:04.042Z,10.77
2022-11-27T09:21:31.747Z,11.07
2022-11-27T09:23:59.712Z,10.47
2022-11-27T09:26:27.781Z,11.27
2022-11-27T09:28:55.626Z,11.47
2022-11-27T09:31:24.506Z,10.00
2022-11-27T09:33:52.014Z,10.93
2022-11-27T09:36:20.633Z,9.83
2022-11-27T09:38:48.471Z,11.57
2022-11-27T09:41:25.418Z,11.83
2022-11-27T09:43:56.697Z,11.63
2022-11-27T09:46:29.629Z,12.23
2022-11-27T09:48:58.700Z,11.73
2022-11-27T09:51:29.227Z,11.07
2022-11-27T09:53:58.993Z,10.37
2022-11-27T09:56:26.561Z,10.63
2022-11-27T09:58:58.159Z,11.17
2022-11-27T10:01:34.880Z,10.83
2022-11-27T10:04:09.828Z,9.30
2022-11-27T10:06:41.780Z,10.50
2022-11-27T10:09:13.422Z,11.23
2022-11-27T10:11:45.253Z,9.50
2022-11-27T10:14:21.689Z,11.33
2022-11-27T10:16:53.610Z,10.00
2022-11-27T10:19:28.072Z,10.83
2022-11-27T10:21:57.738Z,10.30
2022-11-27T10:24:30.542Z,11.67
2022-11-27T10:26:59.704Z,9.17
2022-11-27T10:29:32.270Z,9.77
2022-11-27T10:32:02.877Z,9.13
2022-11-27T10:34:35.826Z,10.07
2022-11-27T10:37:07.375Z,9.40
2022-11-27T10:39:37.613Z,8.50
2022-11-27T10:42:08.858Z,9.43
2022-11-27T10:44:39.812Z,8.73
2022-11-27T10:47:11.053Z,9.77
2022-11-27T10:49:40.158Z,9.00
2022-11-27T10:52:11.968Z,9.67
2022-11-27T10:54:40.274Z,8.27
2022-11-27T10:57:26.251Z,8.63
2022-11-27T11:00:03.602Z,8.67
2022-11-27T11:02:33.476Z,8.80
2022-11-27T11:05:32.856Z,8.93
2022-11-27T11:07:59.583Z,8.47
2022-11-27T11:10:29.678Z,9.43
2022-11-27T11:13:07.469Z,8.37
2022-11-27T11:15:34.934Z,8.60
2022-11-27T11:18:04.177Z,7.63
2022-11-27T11:20:31.629Z,9.23
2022-11-27T11:22:59.182Z,9.13
2022-11-27T11:25:26.666Z,8.17
2022-11-27T11:27:54.369Z,8.47
2022-11-27T11:30:23.057Z,10.73
2022-11-27T11:32:51.577Z,11.30
2022-11-27T11:35:28.006Z,11.73
2022-11-27T11:37:55.853Z,12.10
2022-11-27T11:40:24.756Z,12.13
2022-11-27T11:42:53.570Z,11.60
2022-11-27T11:45:21.945Z,11.40
2022-11-27T11:47:50.234Z,11.73
2022-11-27T11:50:28.053Z,11.40
2022-11-27T11:52:59.788Z,11.40
2022-11-27T11:55:28.475Z,12.77
2022-11-27T11:58:11.903Z,11.30
2022-11-27T12:01:04.751Z,10.57
2022-11-27T12:03:37.789Z,11.00
2022-11-27T12:06:10.757Z,10.60
2022-11-27T12:08:45.618Z,12.00
2022-11-27T12:11:14.931Z,11.13
2022-11-27T12:13:53.234Z,10.37
2022-11-27T12:16:26.017Z,11.37
2022-11-27T12:19:02.881Z,10.73
2022-11-27T12:21:33.151Z,10.50
2022-11-27T12:24:08.963Z,10.67
2022-11-27T12:26:40.795Z,10.90
2022-11-27T12:29:23.127Z,10.73
2022-11-27T12:31:58.064Z,10.20
2022-11-27T12:34:29.964Z,10.50
2022-11-27T12:37:04.519Z,11.07
2022-11-27T12:39:34.107Z,10.93
2022-11-27T12:42:04.669Z,11.30
2022-11-27T12:44:37.449Z,9.73
2022-11-27T12:47:08.208Z,10.20
2022-11-27T12:49:39.612Z,10.57
2022-11-27T12:52:10.757Z,10.40
2022-11-27T12:54:43.599Z,10.17
2022-11-27T12:57:14.408Z,10.67
2022-11-27T12:59:44.261Z,10.10
2022-11-27T13:02:23.634Z,10.70
2022-11-27T13:04:52.788Z,10.13
2022-11-27T13:07:23.823Z,11.07
2022-11-27T13:09:55.283Z,10.63
2022-11-27T13:12:25.530Z,10.20
2022-11-27T13:14:56.277Z,10.63
2022-11-27T13:17:26.543Z,10.77
2022-11-27T13:19:54.142Z,11.27
2022-11-27T13:22:27.364Z,10.07
2022-11-27T13:24:56.774Z,10.10
2022-11-27T13:27:25.738Z,10.00
2022-11-27T13:29:54.949Z,10.37
2022-11-27T13:32:23.538Z,10.20
2022-11-27T13:34:52.060Z,12.53
2022-11-27T13:37:26.629Z,10.27
2022-11-27T13:40:01.728Z,9.70
2022-11-27T13:42:29.390Z,10.13
2022-11-27T13:44:58.174Z,9.80
2022-11-27T13:47:27.150Z,11.00
2022-11-27T13:50:02.469Z,10.30
2022-11-27T13:52:30.352Z,11.13
2022-11-27T13:54:58.940Z,9.60
2022-11-27T13:57:28.546Z,9.33
2022-11-27T13:59:57.491Z,9.30
2022-11-27T14:02:25.087Z,9.10
2022-11-27T14:04:56.452Z,8.73
2022-11-27T14:07:24.971Z,8.97
2022-11-27T14:09:53.461Z,13.27
2022-11-27T14:12:23.043Z,10.47
2022-11-27T14:15:05.746Z,10.10
2022-11-27T14:17:37.619Z,9.47
2022-11-27T14:20:20.779Z,9.23
2022-11-27T14:23:10.488Z,12.03
2022-11-27T14:25:37.350Z,9.03
2022-11-27T14:28:10.109Z,9.57
2022-11-27T14:30:42.322Z,9.73
2022-11-27T14:33:17.677Z,8.77
2022-11-27T14:35:48.701Z,9.53
2022-11-27T14:38:16.765Z,9.53
2022-11-27T14:40:44.651Z,9.37
2022-11-27T14:43:15.405Z,9.57
2022-11-27T14:45:45.436Z,9.37
2022-11-27T14:48:21.017Z,8.80
2022-11-27T14:50:48.807Z,9.50
2022-11-27T14:53:16.558Z,10.23
2022-11-27T14:55:44.069Z,9.70
2022-11-27T14:58:15.324Z,10.40
2022-11-27T15:00:51.350Z,9.80
2022-11-27T15:03:20.277Z,9.37
2022-11-27T15:05:53.578Z,8.87
2022-11-27T15:08:21.093Z,9.77
2022-11-27T15:10:48.636Z,9.07
2022-11-27T15:13:22.078Z,9.20
2022-11-27T15:15:54.601Z,9.57
2022-11-27T15:18:24.132Z,10.17
2022-11-27T15:20:52.481Z,9.10
2022-11-27T15:23:21.234Z,9.43
2022-11-27T15:25:49.604Z,8.00
2022-11-27T15:28:27.724Z,9.37
2022-11-27T15:30:55.526Z,9.30
2022-11-27T15:33:28.610Z,10.07
2022-11-27T15:36:09.809Z,9.17
2022-11-27T15:38:37.250Z,8.57
2022-11-27T15:41:04.670Z,9.27
2022-11-27T15:43:32.117Z,10.20
2022-11-27T15:45:59.782Z,10.40
2022-11-27T15:48:28.593Z,10.37
2022-11-27T15:50:56.002Z,10.20
2022-11-27T15:53:23.440Z,12.20
2022-11-27T15:55:50.891Z,11.73
2022-11-27T15:58:18.305Z,10.43
2022-11-27T16:00:45.935Z,11.63
2022-11-27T16:03:14.230Z,12.20
2022-11-27T16:05:43.302Z,10.57
2022-11-27T16:08:11.694Z,11.57
2022-11-27T16:10:40.259Z,11.10
2022-11-27T16:13:07.764Z,10.97
2022-11-27T16:15:35.486Z,11.60
2022-11-27T16:18:02.919Z,10.50
2022-11-27T16:20:30.391Z,11.67
2022-11-27T16:22:59.215Z,12.50
2022-11-27T16:25:26.724Z,10.63
2022-11-27T16:27:59.387Z,11.77
2022-11-27T16:30:29.818Z,11.30
2022-11-27T16:32:57.246Z,10.37
2022-11-27T16:35:25.422Z,10.33
2022-11-27T16:37:53.111Z,11.00
2022-11-27T16:40:22.000Z,11.40
2022-11-27T16:42:49.545Z,12.93
2022-11-27T16:45:18.628Z,14.63
2022-11-27T16:47:46.149Z,12.40
2022-11-27T16:50:13.682Z,14.97
2022-11-27T16:52:41.315Z,13.83
2022-11-27T16:55:09.529Z,15.20
2022-11-27T16:57:38.625Z,11.83
2022-11-27T17:00:07.246Z,14.80
2022-11-27T17:02:35.003Z,14.23
2022-11-27T17:05:02.522Z,11.80
2022-11-27T17:07:30.587Z,11.73
2022-11-27T17:09:58.110Z,10.57
2022-11-27T17:12:25.541Z,10.60
2022-11-27T17:14:55.302Z,10.77
2022-11-27T17:17:23.268Z,10.80
2022-11-27T17:19:54.915Z,12.67
2022-11-27T17:22:22.562Z,11.27
2022-11-27T17:24:50.263Z,13.57
2022-11-27T17:27:18.366Z,11.80
2022-11-27T17:29:46.110Z,10.63
2022-11-27T17:32:15.793Z,12.10
2022-11-27T17:34:45.166Z,11.10
2022-11-27T17:37:13.336Z,13.13
2022-11-27T17:39:43.379Z,15.40
2022-11-27T17:42:14.473Z,13.30
2022-11-27T17:44:43.629Z,11.13
2022-11-27T17:47:11.097Z,10.83
2022-11-27T17:49:41.812Z,10.97
2022-11-27T17:52:09.434Z,11.70
2022-11-27T17:54:38.390Z,13.27
2022-11-27T17:57:06.262Z,12.40
2022-11-27T17:59:34.619Z,12.17
2022-11-27T18:02:02.305Z,11.60
2022-11-27T18:04:30.931Z,11.17
2022-11-27T18:07:00.325Z,12.60
2022-11-27T18:09:30.059Z,15.33
2022-11-27T18:11:58.460Z,13.77
2022-11-27T18:14:25.894Z,14.70
2022-11-27T18:16:53.500Z,14.63
2022-11-27T18:19:21.341Z,14.87
2022-11-27T18:21:48.845Z,12.07
2022-11-27T18:24:25.535Z,11.00
2022-11-27T18:29:42.806Z,9.80
2022-11-27T18:32:10.787Z,11.60
2022-11-27T18:34:38.489Z,9.30
2022-11-27T18:37:06.401Z,10.17
2022-11-27T18:39:35.496Z,10.13
2022-11-27T18:42:04.887Z,10.93
2022-11-27T18:44:37.292Z,14.43
2022-11-27T18:47:10.809Z,10.53
2022-11-27T18:49:38.850Z,11.60
2022-11-27T18:52:07.308Z,13.00
2022-11-27T18:54:37.058Z,15.50
2022-11-27T18:57:06.186Z,12.00
2022-11-27T18:59:34.102Z,11.70
2022-11-27T19:02:01.673Z,11.93
2022-11-27T19:04:29.256Z,12.07
2022-11-27T19:06:57.043Z,12.43
2022-11-27T19:09:24.972Z,11.93
2022-11-27T19:11:55.561Z,11.33
2022-11-27T19:14:24.205Z,13.10
2022-11-27T19:16:52.162Z,17.83
2022-11-27T19:22:09.462Z,12.93
2022-11-27T19:24:38.262Z,13.23
2022-11-27T19:27:07.117Z,13.00
2022-11-27T19:29:34.584Z,14.13
2022-11-27T19:32:02.130Z,13.70
2022-11-27T19:34:29.666Z,17.97
2022-11-27T19:36:58.229Z,26.47
2022-11-27T19:39:26.856Z,24.10
2022-11-27T19:41:54.348Z,24.30
2022-11-27T19:44:23.166Z,22.67
2022-11-27T19:46:50.630Z,15.60
2022-11-27T19:49:19.140Z,20.00
2022-11-27T19:51:46.763Z,16.17
2022-11-27T19:54:15.514Z,14.40
2022-11-27T19:56:43.177Z,15.30
2022-11-27T19:59:11.084Z,15.83
2022-11-27T20:01:42.203Z,20.13
2022-11-27T20:04:10.953Z,21.53
2022-11-27T20:06:39.366Z,19.30
2022-11-27T20:09:07.481Z,14.10
2022-11-27T20:11:36.356Z,11.90
2022-11-27T20:14:05.583Z,15.83
2022-11-27T20:16:34.461Z,14.33
2022-11-27T20:19:05.220Z,14.27
2022-11-27T20:21:34.658Z,14.00
2022-11-27T20:24:03.864Z,14.13
2022-11-27T20:26:31.454Z,12.53
2022-11-27T20:29:00.312Z,13.87
2022-11-27T20:31:29.159Z,12.67
2022-11-27T20:33:57.834Z,12.97
2022-11-27T20:36:26.743Z,14.00
2022-11-27T20:38:55.488Z,15.43
2022-11-27T20:41:24.333Z,13.77
2022-11-27T20:43:54.706Z,13.37
2022-11-27T20:46:22.297Z,11.63
2022-11-27T20:48:50.859Z,12.73
2022-11-27T20:51:19.854Z,12.83
2022-11-27T20:53:49.797Z,13.20
2022-11-27T20:56:19.476Z,11.90
2022-11-27T20:58:47.536Z,13.37
2022-11-27T21:01:16.430Z,12.37
2022-11-27T21:03:44.453Z,13.83
2022-11-27T21:06:12.170Z,13.13
2022-11-27T21:08:39.738Z,13.13
2022-11-27T21:11:13.006Z,14.00
2022-11-27T21:13:40.684Z,14.40
2022-11-27T21:16:09.560Z,12.93
2022-11-27T21:18:37.259Z,13.83
2022-11-27T21:21:08.795Z,13.30
2022-11-27T21:23:37.470Z,12.03
2022-11-27T21:26:05.300Z,13.00
2022-11-27T21:28:34.683Z,13.90
2022-11-27T21:31:05.724Z,13.93
2022-11-27T21:33:33.449Z,12.87
2022-11-27T21:36:01.089Z,12.10
2022-11-27T21:38:28.759Z,14.07
2022-11-27T21:40:56.377Z,12.60
2022-11-27T21:43:23.906Z,12.50
2022-11-27T21:45:52.852Z,11.33
2022-11-27T21:48:20.557Z,12.23
2022-11-27T21:50:47.985Z,11.93
2022-11-27T21:53:15.573Z,11.60
2022-11-27T21:55:43.346Z,12.00
2022-11-27T21:58:11.069Z,12.07
2022-11-27T22:00:38.691Z,11.57
2022-11-27T22:03:07.498Z,12.00
2022-11-27T22:05:34.971Z,12.57
2022-11-27T22:08:02.501Z,13.33
2022-11-27T22:10:30.049Z,12.67
2022-11-27T22:12:57.530Z,14.17
2022-11-27T22:15:25.113Z,15.77
2022-11-27T22:17:52.989Z,14.40
2022-11-27T22:20:21.785Z,14.07
2022-11-27T22:22:49.214Z,13.10
2022-11-27T22:25:17.929Z,14.13
2022-11-27T22:27:45.427Z,12.97
2022-11-27T22:30:13.721Z,13.80
2022-11-27T22:32:41.215Z,13.90
2022-11-27T22:35:08.914Z,13.93
2022-11-27T22:37:37.710Z,13.33
2022-11-27T22:40:05.807Z,14.27
2022-11-27T22:42:33.387Z,12.70
2022-11-27T22:45:00.938Z,13.87
2022-11-27T22:47:29.259Z,12.23
2022-11-27T22:49:56.706Z,12.33
2022-11-27T22:52:24.297Z,12.57
2022-11-27T22:54:53.116Z,12.50
2022-11-27T22:57:20.580Z,12.43
2022-11-27T22:59:48.997Z,11.90
2022-11-27T23:02:16.514Z,12.20
2022-11-27T23:04:44.373Z,12.33
2022-11-27T23:07:12.163Z,12.53
2022-11-27T23:09:39.666Z,12.03
2022-11-27T23:12:08.490Z,11.00
2022-11-27T23:14:36.432Z,12.80
2022-11-27T23:17:03.985Z,11.93
2022-11-27T23:19:31.482Z,12.10
2022-11-27T23:21:58.962Z,12.33
2022-11-27T23:24:26.420Z,12.43
2022-11-27T23:26:53.843Z,11.63
2022-11-27T23:29:22.658Z,12.43
2022-11-27T23:31:50.191Z,11.67
2022-11-27T23:34:17.673Z,13.63
2022-11-27T23:36:45.161Z,15.47
2022-11-27T23:39:13.506Z,15.40
2022-11-27T23:41:41.484Z,16.17
2022-11-27T23:44:08.954Z,17.17
2022-11-27T23:46:37.740Z,16.27
2022-11-27T23:49:05.202Z,14.70
2022-11-27T23:51:33.811Z,15.27
2022-11-27T23:54:02.452Z,14.60
2022-11-27T23:56:30.895Z,16.77
2022-11-27T23:58:58.868Z,15.33
